Time;durP1;ratioP1;P1;durP2;ratioP2;P2;SDS_P1;SDS_P2;PMS_P1;PMS_P2;Temp;Humidity;BMP_temperature;BMP_pressure;BME280_temperature;BME280_humidity;BME280_pressure;Samples;Min_cycle;Max_cycle;Signal;HPM_P1;HPM_P2
2022/09/08 03:59:49;;;;;;;27.40;24.48;;;;;;;19.87;78.49;100291.78;5619956;31;80874;-58
2022/09/08 04:02:52;;;;;;;27.08;24.25;;;;;;;19.87;78.49;100291.78;5603403;31;34226;-58
2022/09/08 04:05:54;;;;;;;26.58;23.75;;;;;;;19.33;79.93;100292.84;5603477;31;33581;-58
2022/09/08 04:08:57;;;;;;;24.02;21.73;;;;;;;19.30;79.68;100298.19;5603567;31;33758;-58
2022/09/08 04:11:59;;;;;;;24.52;22.13;;;;;;;19.34;80.23;100297.19;5603493;31;33583;-58
2022/09/08 04:15:01;;;;;;;23.87;21.35;;;;;;;19.46;79.49;100304.50;5603711;31;33233;-58
2022/09/08 04:18:04;;;;;;;23.12;21.02;;;;;;;19.46;79.54;100307.22;5602983;31;33686;-58
2022/09/08 04:21:06;;;;;;;23.95;21.65;;;;;;;19.55;78.98;100307.91;5603578;31;33537;-58
2022/09/08 04:24:09;;;;;;;23.17;20.90;;;;;;;19.63;78.62;100323.31;5603474;31;34229;-58
2022/09/08 04:27:11;;;;;;;23.65;21.35;;;;;;;19.53;78.54;100321.03;5603317;31;33651;-58
2022/09/08 04:30:14;;;;;;;23.35;20.85;;;;;;;19.54;78.19;100308.25;5603091;31;33287;-58
2022/09/08 04:33:17;;;;;;;22.67;20.45;;;;;;;19.58;78.38;100304.50;5603648;31;33827;-58
2022/09/08 04:36:21;;;;;;;24.35;21.90;;;;;;;19.59;78.09;100289.75;5603214;31;33541;-58
2022/09/08 04:39:28;;;;;;;23.15;20.95;;;;;;;19.62;78.17;100293.72;5603365;31;34184;-58
2022/09/08 04:42:31;;;;;;;22.77;20.67;;;;;;;19.83;77.58;100291.66;5603186;31;33716;-58
2022/09/08 04:45:33;;;;;;;22.20;20.15;;;;;;;19.87;77.43;100289.84;5599751;31;33740;-58
2022/09/08 04:48:37;;;;;;;22.58;20.58;;;;;;;19.80;77.66;100286.94;5602576;31;33580;-58
2022/09/08 04:51:40;;;;;;;22.52;20.37;;;;;;;19.83;77.68;100288.94;5596994;31;33739;-58
2022/09/08 04:54:43;;;;;;;22.58;20.30;;;;;;;19.79;77.75;100293.50;5600634;31;33131;-59
2022/09/08 04:57:47;;;;;;;22.40;20.20;;;;;;;19.84;77.68;100300.63;5604710;31;34451;-58
2022/09/08 05:00:50;;;;;;;22.70;20.48;;;;;;;19.87;77.71;100303.47;5600126;31;33622;-58
2022/09/08 05:03:55;;;;;;;22.55;20.25;;;;;;;19.89;78.16;100306.59;5599833;31;33397;-58
2022/09/08 05:06:57;;;;;;;23.33;20.92;;;;;;;19.99;77.87;100304.53;5597291;31;32080;-58
2022/09/08 05:10:01;;;;;;;23.08;20.45;;;;;;;20.14;75.88;100303.81;5583734;31;34241;-58
2022/09/08 05:13:03;;;;;;;22.48;20.10;;;;;;;20.13;77.16;100305.75;5569256;31;34556;-58
2022/09/08 05:16:27;;;;;;;21.75;19.55;;;;;;;20.21;76.73;100303.22;5580253;31;34329;-59
2022/09/08 05:19:29;;;;;;;20.98;18.87;;;;;;;20.25;75.96;100309.56;5591101;31;33601;-58
2022/09/08 05:22:32;;;;;;;20.67;18.58;;;;;;;20.32;76.28;100312.47;5609149;31;33729;-58
2022/09/08 05:25:34;;;;;;;22.23;18.30;;;;;;;20.34;74.95;100321.87;5572882;31;34356;-59
2022/09/08 05:28:38;;;;;;;20.58;17.23;;;;;;;20.38;74.06;100322.75;5569626;31;34512;-58
2022/09/08 05:31:43;;;;;;;19.00;16.60;;;;;;;20.42;73.43;100310.03;5568909;31;33461;-58
2022/09/08 05:34:45;;;;;;;18.25;15.93;;;;;;;20.48;73.55;100307.84;5570152;31;34394;-58
2022/09/08 05:37:48;;;;;;;17.10;15.27;;;;;;;20.58;69.75;100309.31;5572844;31;33623;-58
2022/09/08 05:40:50;;;;;;;17.87;15.05;;;;;;;20.59;70.79;100317.12;5577850;31;33250;-58
2022/09/08 05:43:56;;;;;;;16.73;15.07;;;;;;;20.61;69.40;100314.84;5571305;31;33909;-58
2022/09/08 05:46:58;;;;;;;16.92;14.73;;;;;;;20.68;68.69;100311.50;5572837;31;33598;-58
2022/09/08 05:50:01;;;;;;;20.52;15.25;;;;;;;20.79;68.50;100309.84;5570831;31;34412;-59
2022/09/08 05:53:03;;;;;;;25.92;15.57;;;;;;;20.87;67.91;100303.44;5569444;31;33278;-58
2022/09/08 05:56:07;;;;;;;21.42;16.17;;;;;;;20.94;67.03;100310.22;5568879;32;34117;-58
2022/09/08 05:59:10;;;;;;;18.17;15.10;;;;;;;21.06;66.42;100304.69;5569137;31;33604;-58
2022/09/08 06:02:13;;;;;;;18.75;16.85;;;;;;;21.19;66.02;100305.34;5570711;31;33711;-58
2022/09/08 06:05:16;;;;;;;22.98;16.58;;;;;;;21.28;65.94;100303.25;5568628;32;34372;-58
2022/09/08 06:08:21;;;;;;;29.12;15.40;;;;;;;21.29;66.92;100297.44;5568590;31;33960;-58
2022/09/08 06:11:23;;;;;;;23.70;16.00;;;;;;;21.28;66.43;100303.25;5579738;31;34270;-58
2022/09/08 06:14:26;;;;;;;27.65;16.60;;;;;;;21.40;65.24;100297.72;5580428;31;33657;-58
2022/09/08 06:17:28;;;;;;;23.42;16.27;;;;;;;21.48;65.31;100296.72;5568568;31;34333;-58
2022/09/08 06:20:31;;;;;;;20.12;16.02;;;;;;;21.48;65.70;100296.72;5567701;31;33923;-58
2022/09/08 06:23:33;;;;;;;17.52;15.50;;;;;;;21.57;64.81;100300.03;5568481;31;33642;-58
2022/09/08 06:26:53;;;;;;;19.10;16.25;;;;;;;21.54;65.09;100298.03;5580938;31;33650;-58
2022/09/08 06:30:10;;;;;;;17.50;15.20;;;;;;;21.57;64.77;100293.81;5579363;31;33680;-58
2022/09/08 06:33:14;;;;;;;21.85;15.70;;;;;;;21.52;65.41;100296.78;5569012;32;33645;-58
2022/09/08 06:36:25;;;;;;;27.52;16.10;;;;;;;21.54;64.84;100295.28;5574513;31;33699;-58
2022/09/08 06:39:40;;;;;;;17.77;15.98;;;;;;;21.59;65.13;100283.34;5576487;31;33780;-58
2022/09/08 06:42:55;;;;;;;27.85;16.87;;;;;;;21.65;64.42;100283.81;5568506;32;33580;-58
2022/09/08 06:46:01;;;;;;;32.15;16.87;;;;;;;21.62;64.86;100263.50;5568105;31;33634;-58
2022/09/08 06:49:04;;;;;;;66.62;17.73;;;;;;;21.70;64.92;100261.72;5570507;31;33709;-58
2022/09/08 06:52:23;;;;;;;21.48;15.95;;;;;;;21.75;64.56;100256.75;5568457;31;34264;-58
2022/09/08 06:55:43;;;;;;;37.10;16.77;;;;;;;21.73;64.59;100267.25;5569449;31;34294;-58
2022/09/08 06:58:46;;;;;;;21.62;15.70;;;;;;;21.73;64.95;100255.56;5577906;31;33690;-58
2022/09/08 07:01:54;;;;;;;19.25;15.35;;;;;;;21.84;64.60;100259.28;5568562;32;34393;-58
2022/09/08 07:05:36;;;;;;;20.12;14.70;;;;;;;21.79;64.15;100251.41;5568039;32;33941;-58
2022/09/08 07:08:52;;;;;;;21.33;14.30;;;;;;;21.84;64.22;100251.09;5568105;31;33542;-58
2022/09/08 07:12:03;;;;;;;21.40;14.23;;;;;;;21.89;63.89;100245.38;5570204;31;33331;-58
2022/09/08 07:15:59;;;;;;;29.42;16.10;;;;;;;21.89;64.60;100241.84;5567595;31;34315;-58
2022/09/08 07:19:14;;;;;;;29.27;15.93;;;;;;;21.95;65.02;100243.94;5549278;31;34593;-59
2022/09/08 07:22:32;;;;;;;21.50;15.05;;;;;;;21.98;64.16;100245.91;5582282;31;33687;-58
2022/09/08 07:26:07;;;;;;;17.50;14.13;;;;;;;22.01;63.79;100250.66;5584730;31;33729;-58
2022/09/08 07:29:25;;;;;;;19.12;14.32;;;;;;;22.17;63.85;100245.13;5585423;31;33716;-58
2022/09/08 07:32:32;;;;;;;22.35;14.82;;;;;;;22.10;63.85;100253.16;5585205;31;34433;-58
2022/09/08 07:35:42;;;;;;;23.55;14.98;;;;;;;22.16;64.71;100245.50;5587362;31;32695;-58
2022/09/08 07:38:52;;;;;;;19.27;14.13;;;;;;;22.24;64.31;100248.00;5587710;31;33170;-58
2022/09/08 07:41:54;;;;;;;17.45;14.60;;;;;;;22.30;65.53;100258.63;5587947;31;33632;-58
2022/09/08 07:44:59;;;;;;;19.08;14.98;;;;;;;22.35;64.41;100256.41;5595730;31;33513;-58
2022/09/08 07:48:12;;;;;;;24.70;14.85;;;;;;;22.41;63.98;100256.88;5579084;31;33748;-58
2022/09/08 07:51:16;;;;;;;22.25;15.50;;;;;;;22.52;63.43;100264.13;5568323;31;33498;-58
2022/09/08 07:54:34;;;;;;;21.20;14.90;;;;;;;22.59;62.37;100265.41;5577223;31;34370;-58
2022/09/08 07:57:55;;;;;;;18.85;14.48;;;;;;;22.64;63.73;100260.41;5578782;31;33675;-59
2022/09/08 08:01:19;;;;;;;21.62;15.25;;;;;;;22.65;63.18;100262.00;5567009;32;33510;-58
2022/09/08 08:04:40;;;;;;;20.98;15.05;;;;;;;22.73;62.93;100262.91;5566590;32;33684;-58
2022/09/08 08:07:55;;;;;;;23.58;14.20;;;;;;;22.72;62.69;100267.59;5574386;31;33611;-58
2022/09/08 08:11:17;;;;;;;;;;;;;;;22.69;63.18;100281.97;5571292;31;34341;-58
2022/09/08 08:14:22;;;;;;;18.65;15.32;;;;;;;22.80;64.36;100284.09;5567803;31;34093;-59
2022/09/08 08:17:35;;;;;;;24.40;14.60;;;;;;;22.81;62.73;100286.44;5575117;31;33175;-58
2022/09/08 08:21:02;;;;;;;18.62;14.95;;;;;;;22.88;61.87;100281.13;5566425;31;32039;-59
2022/09/08 08:24:22;;;;;;;24.45;15.18;;;;;;;22.91;63.54;100283.12;5567579;31;33668;-58
2022/09/08 08:27:28;;;;;;;28.05;16.05;;;;;;;22.96;62.43;100277.37;5569148;31;33804;-58
2022/09/08 08:30:38;;;;;;;28.90;16.42;;;;;;;23.04;63.54;100277.47;5581885;31;33515;-58
2022/09/08 08:33:44;;;;;;;23.27;15.38;;;;;;;23.06;62.44;100267.75;5578563;31;34240;-58
2022/09/08 08:36:48;;;;;;;22.35;15.45;;;;;;;23.18;63.70;100277.72;5572436;31;33134;-58
2022/09/08 08:39:53;;;;;;;47.53;16.42;;;;;;;23.19;63.28;100290.22;5570136;31;33405;-58
2022/09/08 08:43:21;;;;;;;25.08;15.48;;;;;;;23.22;63.33;100275.81;5566999;32;33637;-58
2022/09/08 08:46:51;;;;;;;20.10;14.27;;;;;;;23.27;63.19;100283.69;5567846;31;34362;-59
2022/09/08 08:50:21;;;;;;;22.35;15.63;;;;;;;23.32;63.39;100286.12;5571570;31;34249;-58
2022/09/08 08:53:45;;;;;;;22.60;14.80;;;;;;;23.43;63.11;100284.31;5572854;31;34282;-58
2022/09/08 08:57:30;;;;;;;54.67;16.20;;;;;;;23.50;62.80;100277.37;5572188;31;35172;-58
2022/09/08 09:00:57;;;;;;;16.87;14.18;;;;;;;23.60;62.64;100265.78;5571805;31;34170;-58
2022/09/08 09:04:23;;;;;;;21.60;14.77;;;;;;;23.64;62.52;100259.22;5571629;31;34275;-58
2022/09/08 09:07:43;;;;;;;;;;;;;;;23.67;62.75;100253.00;5572675;31;33886;-58
2022/09/08 09:11:23;;;;;;;17.40;14.15;;;;;;;23.76;61.44;100249.19;5573478;31;33704;-58
2022/09/08 09:14:53;;;;;;;15.52;13.82;;;;;;;23.73;62.01;100237.03;5571466;31;34154;-58
2022/09/08 09:18:59;;;;;;;20.55;14.38;;;;;;;23.78;62.28;100234.00;5567512;31;33563;-59
2022/09/08 09:22:52;;;;;;;15.90;13.25;;;;;;;23.79;63.33;100221.88;5499457;32;33540;-58
2022/09/08 09:26:25;;;;;;;17.77;13.10;;;;;;;23.90;63.26;100225.50;5508466;31;34986;-58
2022/09/08 09:29:37;;;;;;;17.85;12.63;;;;;;;23.97;61.34;100216.59;5578471;31;34297;-58
2022/09/08 09:33:03;;;;;;;23.10;13.25;;;;;;;24.01;63.03;100216.66;5569674;31;34370;-59
2022/09/08 09:36:33;;;;;;;15.85;12.77;;;;;;;24.09;62.89;100213.59;5567225;32;33743;-59
2022/09/08 09:40:08;;;;;;;32.65;14.25;;;;;;;24.15;62.12;100212.09;5572906;31;34410;-59
2022/09/08 09:43:21;;;;;;;19.52;12.60;;;;;;;24.20;62.51;100205.47;5578254;31;33695;-59
2022/09/08 09:46:45;;;;;;;190.20;21.87;;;;;;;24.32;61.83;100207.16;5573575;31;33748;-59
2022/09/08 09:50:06;;;;;;;29.15;13.20;;;;;;;24.38;62.61;100192.75;5578462;31;33651;-58
2022/09/08 09:53:33;;;;;;;83.75;15.25;;;;;;;24.45;61.15;100186.56;5569394;31;34299;-58
2022/09/08 09:56:55;;;;;;;23.27;12.32;;;;;;;24.58;61.07;100187.84;5578860;31;32359;-59
2022/09/08 10:00:27;;;;;;;45.55;13.57;;;;;;;24.64;60.10;100180.06;5575066;31;34243;-58
2022/09/08 10:03:57;;;;;;;27.13;12.02;;;;;;;24.79;59.53;100189.94;5579144;31;34404;-58
2022/09/08 10:07:14;;;;;;;41.42;12.15;;;;;;;24.83;58.92;100171.59;5584987;31;33458;-59
2022/09/08 10:10:42;;;;;;;18.00;10.55;;;;;;;24.87;59.01;100170.81;5584569;31;33776;-58
2022/09/08 10:14:16;;;;;;;16.35;10.23;;;;;;;24.91;59.48;100172.41;5553141;31;33536;-59
2022/09/08 10:17:53;;;;;;;11.25;10.10;;;;;;;25.00;59.35;100174.78;5571056;31;34435;-58
2022/09/08 10:21:11;;;;;;;11.60;9.95;;;;;;;25.09;58.03;100180.72;5549903;31;33376;-59
2022/09/08 10:24:48;;;;;;;12.07;9.60;;;;;;;25.09;58.89;100169.75;5575475;31;33763;-59
2022/09/08 10:28:10;;;;;;;11.75;9.70;;;;;;;25.09;59.44;100173.28;5568862;32;34250;-58
2022/09/08 10:31:31;;;;;;;21.80;11.20;;;;;;;25.16;58.80;100160.81;5574100;31;33767;-59
2022/09/08 10:34:57;;;;;;;11.95;10.05;;;;;;;25.33;59.17;100165.63;5571010;31;33679;-59
2022/09/08 10:38:17;;;;;;;12.13;9.32;;;;;;;25.36;59.11;100158.56;5576462;31;33219;-59
2022/09/08 10:41:38;;;;;;;15.73;9.25;;;;;;;25.43;59.20;100161.31;5585806;31;34378;-58
2022/09/08 10:44:50;;;;;;;12.75;8.93;;;;;;;25.51;58.75;100160.19;5577505;31;34330;-58
2022/09/08 10:47:58;;;;;;;12.60;9.50;;;;;;;25.48;59.18;100155.47;5584037;31;33464;-59
2022/09/08 10:51:38;;;;;;;13.88;9.25;;;;;;;25.55;58.94;100166.47;5570602;31;34000;-58
2022/09/08 10:55:19;;;;;;;11.40;8.13;;;;;;;25.69;57.75;100158.28;5550791;31;33662;-58
2022/09/08 10:58:55;;;;;;;10.55;7.35;;;;;;;25.60;58.69;100149.63;5564018;31;33667;-56
2022/09/08 11:02:09;;;;;;;10.98;7.65;;;;;;;25.61;58.46;100145.72;5578168;31;33787;-56
2022/09/08 11:05:23;;;;;;;13.20;7.18;;;;;;;25.59;58.24;100148.03;5583555;31;34447;-56
2022/09/08 11:08:55;;;;;;;12.40;7.12;;;;;;;25.66;57.36;100155.50;5572877;31;34085;-56
2022/09/08 11:12:20;;;;;;;11.40;6.70;;;;;;;25.71;57.63;100144.94;5577737;31;34318;-56
2022/09/08 11:15:41;;;;;;;9.82;6.75;;;;;;;25.77;57.71;100140.66;5577562;31;33736;-56
2022/09/08 11:18:43;;;;;;;11.95;6.65;;;;;;;25.76;56.72;100146.53;5585910;31;33657;-56
2022/09/08 11:22:04;;;;;;;10.52;5.85;;;;;;;25.87;55.71;100147.38;5572750;31;33664;-56
2022/09/08 11:25:41;;;;;;;14.65;7.15;;;;;;;25.96;55.88;100146.97;5573175;31;32051;-56
2022/09/08 11:29:09;;;;;;;16.48;6.53;;;;;;;25.99;56.36;100148.94;5579190;31;33827;-56
2022/09/08 11:32:14;;;;;;;15.52;6.65;;;;;;;25.96;55.89;100146.97;5571737;31;34281;-56
2022/09/08 11:35:33;;;;;;;9.45;4.95;;;;;;;25.95;55.74;100151.69;5577398;31;33777;-56
2022/09/08 11:38:55;;;;;;;8.23;5.30;;;;;;;25.96;54.89;100142.28;5587632;31;33843;-56
2022/09/08 11:42:35;;;;;;;11.95;5.10;;;;;;;26.02;55.50;100145.41;5583191;31;33765;-56
2022/09/08 11:46:03;;;;;;;10.80;4.75;;;;;;;26.17;53.83;100152.50;5568637;31;34091;-56
2022/09/08 11:49:22;;;;;;;10.80;4.70;;;;;;;26.20;54.51;100154.47;5584528;31;33908;-56
2022/09/08 11:52:45;;;;;;;15.98;4.68;;;;;;;26.21;53.15;100142.28;5577851;31;34240;-56
2022/09/08 11:56:23;;;;;;;11.40;4.37;;;;;;;26.27;53.28;100141.91;5569679;31;34313;-56
2022/09/08 11:59:48;;;;;;;6.22;3.62;;;;;;;26.33;52.75;100137.59;5522580;31;34838;-56
2022/09/08 12:03:16;;;;;;;8.10;4.05;;;;;;;26.38;52.54;100126.97;5568126;31;34058;-56
2022/09/08 12:06:21;;;;;;;10.30;4.15;;;;;;;26.48;52.14;100134.47;5555443;31;34083;-56
2022/09/08 12:09:52;;;;;;;9.35;3.90;;;;;;;26.46;52.37;100136.81;5607205;31;33773;-56
2022/09/08 12:13:09;;;;;;;11.50;3.78;;;;;;;26.60;52.64;100141.53;5578697;31;33475;-56
2022/09/08 12:16:22;;;;;;;13.32;3.53;;;;;;;26.62;51.50;100128.19;5567613;32;34489;-56
2022/09/08 12:19:50;;;;;;;8.63;3.60;;;;;;;26.60;50.93;100125.03;5582159;31;34573;-56
2022/09/08 12:22:58;;;;;;;12.43;3.55;;;;;;;26.76;50.58;100115.59;5585377;31;33730;-56
2022/09/08 12:26:14;;;;;;;11.20;3.90;;;;;;;26.69;50.42;100111.66;5593660;31;33982;-56
2022/09/08 12:29:52;;;;;;;12.25;3.67;;;;;;;26.68;50.91;100107.34;5602155;31;34480;-56
2022/09/08 12:33:20;;;;;;;14.87;3.78;;;;;;;26.71;50.29;100103.00;5589831;31;33748;-56
2022/09/08 12:36:44;;;;;;;9.43;3.78;;;;;;;26.66;51.47;100101.47;5588046;31;33359;-56
2022/09/08 12:39:53;;;;;;;;;;;;;;;26.76;50.21;100096.34;5578858;31;33847;-56
2022/09/08 12:43:10;;;;;;;6.10;3.65;;;;;;;26.65;49.94;100102.63;5584789;31;33788;-56
2022/09/08 12:46:33;;;;;;;10.70;3.47;;;;;;;26.61;50.05;100099.09;5599364;31;33672;-56
2022/09/08 12:50:00;;;;;;;8.60;3.00;;;;;;;26.64;50.50;100092.03;5577350;31;33876;-57
2022/09/08 12:53:12;;;;;;;34.42;4.57;;;;;;;26.70;50.35;100080.22;5609857;31;34404;-56
2022/09/08 12:56:42;;;;;;;12.82;4.00;;;;;;;26.77;49.53;100070.41;5609618;31;34273;-56
2022/09/08 13:00:09;;;;;;;10.52;3.60;;;;;;;26.78;50.04;100072.75;5590913;31;33381;-56
2022/09/08 13:03:33;;;;;;;17.40;4.62;;;;;;;26.86;49.48;100068.03;5590034;31;33849;-56
2022/09/08 13:06:58;;;;;;;9.98;3.95;;;;;;;26.97;48.88;100056.97;5589945;31;33675;-56
2022/09/08 13:10:12;;;;;;;13.10;3.95;;;;;;;26.86;50.17;100063.31;5589768;31;33628;-56
2022/09/08 13:13:30;;;;;;;11.12;3.80;;;;;;;26.94;49.01;100066.78;5589737;31;33700;-56
2022/09/08 13:17:03;;;;;;;10.07;3.60;;;;;;;26.96;49.12;100067.19;5582706;31;33797;-56
2022/09/08 13:20:42;;;;;;;42.95;6.12;;;;;;;26.91;48.93;100062.09;5585043;31;32333;-56
2022/09/08 13:23:53;;;;;;;9.23;3.60;;;;;;;26.81;48.99;100052.69;5607030;31;33790;-56
2022/09/08 13:27:19;;;;;;;14.35;3.53;;;;;;;26.78;49.88;100047.22;5597504;31;33959;-56
2022/09/08 13:30:54;;;;;;;14.82;3.90;;;;;;;26.89;48.83;100042.47;5589201;31;33694;-56
2022/09/08 13:34:14;;;;;;;17.75;4.35;;;;;;;26.84;49.06;100023.63;5548289;31;33590;-56
2022/09/08 13:37:46;;;;;;;22.92;4.28;;;;;;;26.93;48.61;100026.72;5570331;31;34479;-58
2022/09/08 13:41:07;;;;;;;14.23;3.50;;;;;;;26.85;49.09;100025.97;5583600;31;33211;-58
2022/09/08 13:44:24;;;;;;;12.90;4.28;;;;;;;26.85;48.88;100023.22;5608932;31;33739;-58
2022/09/08 13:48:14;;;;;;;30.42;5.00;;;;;;;26.77;49.77;100023.66;5590119;31;33638;-58
2022/09/08 13:51:49;;;;;;;15.73;4.20;;;;;;;26.81;50.37;100027.94;5587514;31;33864;-58
2022/09/08 13:55:06;;;;;;;17.75;3.87;;;;;;;26.87;50.88;100025.56;5589242;31;34376;-58
2022/09/08 13:58:24;;;;;;;98.35;8.77;;;;;;;26.83;51.47;100024.81;5589116;31;33901;-58
2022/09/08 14:01:31;;;;;;;7.85;3.53;;;;;;;26.75;51.75;100021.28;5589095;31;33687;-58
2022/09/08 14:04:41;;;;;;;25.33;4.70;;;;;;;26.76;50.62;100014.63;5581189;31;33667;-58
2022/09/08 14:07:50;;;;;;;17.92;4.62;;;;;;;26.71;50.82;100010.31;5571843;31;33737;-58
2022/09/08 14:11:30;;;;;;;24.60;4.20;;;;;;;26.61;50.82;100005.63;5589295;31;33632;-58
2022/09/08 14:14:31;;;;;;;20.23;5.00;;;;;;;26.55;51.75;100020.97;5588470;31;34472;-58
2022/09/08 14:17:45;;;;;;;16.58;4.32;;;;;;;26.55;53.11;100009.97;5584352;31;33739;-58
2022/09/08 14:21:13;;;;;;;22.95;5.12;;;;;;;26.64;51.59;100004.84;5584980;31;33724;-58
2022/09/08 14:24:37;;;;;;;33.67;5.78;;;;;;;26.59;52.65;99996.22;5595148;31;34337;-58
2022/09/08 14:27:54;;;;;;;18.45;4.03;;;;;;;26.53;52.71;99976.63;5596557;31;33906;-58
2022/09/08 14:31:15;;;;;;;17.70;4.35;;;;;;;26.51;52.73;99964.44;5606343;31;34436;-59
2022/09/08 14:34:45;;;;;;;10.30;3.80;;;;;;;26.42;53.01;99970.31;5602322;31;34393;-58
2022/09/08 14:38:01;;;;;;;17.37;3.87;;;;;;;26.45;52.85;99964.03;5576237;31;33510;-58
2022/09/08 14:41:16;;;;;;;51.58;7.10;;;;;;;26.50;53.49;99965.63;5574913;31;33664;-58
2022/09/08 14:44:29;;;;;;;;;;;;;;;26.45;53.48;99964.81;5569888;31;33687;-58
2022/09/08 14:47:46;;;;;;;79.53;7.82;;;;;;;26.32;53.20;99960.94;5582078;31;34479;-59
2022/09/08 14:50:54;;;;;;;67.65;6.82;;;;;;;26.34;53.53;99963.28;5574184;31;33409;-58
2022/09/08 14:54:21;;;;;;;31.77;4.78;;;;;;;26.34;53.81;99957.81;5581333;31;33679;-58
2022/09/08 14:57:46;;;;;;;57.25;6.45;;;;;;;26.29;55.32;99969.19;5575242;31;34402;-58
2022/09/08 15:00:53;;;;;;;63.22;6.22;;;;;;;26.30;54.14;99984.50;5573068;31;34336;-58
2022/09/08 15:04:01;;;;;;;15.02;3.87;;;;;;;26.41;53.43;99985.25;5569359;32;33626;-59
2022/09/08 15:07:15;;;;;;;18.30;3.78;;;;;;;26.45;53.00;99992.31;5581458;31;33462;-58
2022/09/08 15:10:22;;;;;;;13.90;3.40;;;;;;;26.30;54.28;100006.50;5583709;31;34311;-58
2022/09/08 15:13:32;;;;;;;22.13;4.90;;;;;;;26.25;54.76;100021.41;5595941;31;34234;-58
2022/09/08 15:16:41;;;;;;;14.05;3.35;;;;;;;26.25;55.12;100032.41;5601215;31;33668;-58
2022/09/08 15:19:51;;;;;;;13.57;3.25;;;;;;;26.17;53.34;100036.34;5587189;31;33344;-58
2022/09/08 15:22:59;;;;;;;20.77;3.45;;;;;;;26.12;53.30;100031.22;5588897;31;34335;-58
2022/09/08 15:26:08;;;;;;;15.77;3.15;;;;;;;26.06;53.08;100041.84;5605651;31;33933;-58
2022/09/08 15:29:13;;;;;;;11.95;3.15;;;;;;;25.98;51.12;100041.06;5608623;31;33749;-58
2022/09/08 15:32:24;;;;;;;10.63;3.37;;;;;;;25.92;51.38;100039.88;5608497;31;33707;-58
2022/09/08 15:35:49;;;;;;;11.45;3.47;;;;;;;25.83;52.73;100028.53;5608474;31;34470;-58
2022/09/08 15:39:03;;;;;;;13.10;3.20;;;;;;;25.77;52.97;100030.06;5608441;31;33668;-58
2022/09/08 15:42:45;;;;;;;6.55;2.12;;;;;;;25.69;51.97;100022.97;5608053;31;33679;-58
2022/09/08 15:46:18;;;;;;;14.20;2.72;;;;;;;25.63;48.87;100025.34;5589346;31;33672;-58
